MSC Maya — 3FNF8 — position and weather

sailwx.info

Track history (hours):
 
Tides and Currents Weather Stations Pressure Air Temp Water Temp Dewpoint Dewpoint Depression Visibility Wind Speed Wind Dir Waves Ship Positions

MSC Maya

Last reported at 2016-Jun-27 08:20 UTC. Time now 2016-Jun-29 02:03 UTC.
Position N 01°15' E 104°08'.

Length 242 m; draft 7.4 m.

Type: Cargo ship. MMSI: 351384000.

Date/timePositionNaut miles runAvg speedWind from/ knotsBaromVisibWave heightAir tempDewpointWater temp
2016-Jun-27 08:20N 01°15' E 104°08'911.9
2016-Jun-27 07:33N 01°14' E 103°59'13 5.8
2016-Jun-27 05:22N 01°16' E 103°46'0 0.1
2016-Jun-27 04:31N 01°16' E 103°46'0 0.1
2016-Jun-27 03:28N 01°16' E 103°46'0 0.1
2016-Jun-27 02:25N 01°16' E 103°46'0 0.0
2016-Jun-27 01:15N 01°16' E 103°46'0 0.1
2016-Jun-27 00:25N 01°16' E 103°46'0 0.1
2016-Jun-26 23:31N 01°16' E 103°46'0 0.0
2016-Jun-26 22:30N 01°16' E 103°46'0 0.0
2016-Jun-26 21:06N 01°16' E 103°46'0 0.1
2016-Jun-26 20:29N 01°16' E 103°46'0 0.0
2016-Jun-26 19:29N 01°16' E 103°46'0 0.0
2016-Jun-26 18:32N 01°16' E 103°46'0 0.0
2016-Jun-26 14:28N 01°16' E 103°46'0 0.1
2016-Jun-26 13:33N 01°16' E 103°46'0 0.1
2016-Jun-26 12:24N 01°16' E 103°46'0 0.1
2016-Jun-26 11:33N 01°16' E 103°46'0 0.0
2016-Jun-26 10:33N 01°16' E 103°46'8 8.4
2016-Jun-26 09:33N 01°12' E 103°39'7 2.4
2016-Jun-26 06:33N 01°12' E 103°32'2 0.2
2016-Jun-25 17:04N 01°14' E 103°32'7 0.5
2016-Jun-25 03:31N 01°12' E 103°38'1010.7
2016-Jun-25 02:33N 01°10' E 103°48'1111.6
2016-Jun-25 01:33N 01°15' E 103°59'  
2016-Jun-20 04:22N 01°15' E 104°06'1012.9
2016-Jun-20 03:33N 01°13' E 103°56'9 9.1
2016-Jun-20 02:33N 01°14' E 103°47'2 1.6
2016-Jun-20 01:23N 01°16' E 103°46'0 0.0
2016-Jun-20 00:29N 01°16' E 103°46'0 0.0
2016-Jun-19 23:30N 01°16' E 103°46'0 0.0
2016-Jun-19 22:33N 01°16' E 103°46'0 0.0
2016-Jun-19 21:32N 01°16' E 103°46'0 0.0
2016-Jun-19 20:29N 01°16' E 103°46'0 0.0
2016-Jun-19 19:32N 01°16' E 103°46'0 0.0
2016-Jun-19 18:32N 01°16' E 103°46'0 0.0
2016-Jun-19 17:27N 01°16' E 103°46'0 0.0
2016-Jun-19 16:33N 01°16' E 103°46'0 0.0
2016-Jun-19 15:31N 01°16' E 103°46'0 0.0
2016-Jun-19 14:29N 01°16' E 103°46'0 0.0
2016-Jun-19 13:32N 01°16' E 103°46'0 0.0
2016-Jun-19 12:34N 01°16' E 103°46'0 0.0
2016-Jun-19 11:33N 01°16' E 103°46'2 1.8
2016-Jun-19 10:29N 01°14' E 103°47'0 0.0
2016-Jun-19 09:32N 01°14' E 103°47'0 0.0
2016-Jun-19 08:32N 01°14' E 103°47'0 0.1
2016-Jun-19 07:32N 01°14' E 103°47'0 0.1
2016-Jun-19 06:33N 01°14' E 103°47'0 0.0
2016-Jun-19 05:33N 01°14' E 103°47'0 0.1
2016-Jun-19 04:33N 01°14' E 103°47'0 0.1
2016-Jun-19 03:33N 01°14' E 103°47'4 4.4
2016-Jun-19 02:33N 01°14' E 103°43'12 2.4
2016-Jun-18 21:23N 01°21' E 103°33'0 0.0
2016-Jun-18 20:14N 01°21' E 103°33'0 0.0
2016-Jun-18 19:32N 01°21' E 103°33'0 0.0
2016-Jun-18 18:20N 01°21' E 103°33'0 0.0
2016-Jun-18 17:26N 01°21' E 103°33'0 0.0
2016-Jun-18 16:08N 01°21' E 103°33'0 0.0
2016-Jun-18 15:32N 01°21' E 103°33'0 0.0
2016-Jun-18 12:11N 01°21' E 103°33'0 0.0
2016-Jun-18 07:18N 01°21' E 103°33'12 2.2
2016-Jun-18 02:07N 01°10' E 103°33'5 4.8
2016-Jun-18 01:04N 01°11' E 103°38'9 6.3
2016-Jun-17 23:33N 01°10' E 103°48'8 7.9
2016-Jun-17 22:33N 01°13' E 103°55'7 7.4
2016-Jun-17 21:33N 01°15' E 104°02'  
Track history (hours):
 
Tides and Currents Weather Stations Pressure Air Temp Water Temp Dewpoint Dewpoint Depression Visibility Wind Speed Wind Dir Waves Ship Positions

MSC Maya

Last reported at 2016-Jun-27 08:20 UTC. Time now 2016-Jun-29 02:03 UTC.
Position N 01°15' E 104°08'.

Length 242 m; draft 7.4 m.

Type: Cargo ship. MMSI: 351384000.

Date/timePositionNaut miles runAvg speedWind from/ knotsBaromVisibWave heightAir tempDewpointWater temp
2016-Jun-27 08:20N 01°15' E 104°08'911.9
2016-Jun-27 07:33N 01°14' E 103°59'13 5.8
2016-Jun-27 05:22N 01°16' E 103°46'0 0.1
2016-Jun-27 04:31N 01°16' E 103°46'0 0.1
2016-Jun-27 03:28N 01°16' E 103°46'0 0.1
2016-Jun-27 02:25N 01°16' E 103°46'0 0.0
2016-Jun-27 01:15N 01°16' E 103°46'0 0.1
2016-Jun-27 00:25N 01°16' E 103°46'0 0.1
2016-Jun-26 23:31N 01°16' E 103°46'0 0.0
2016-Jun-26 22:30N 01°16' E 103°46'0 0.0
2016-Jun-26 21:06N 01°16' E 103°46'0 0.1
2016-Jun-26 20:29N 01°16' E 103°46'0 0.0
2016-Jun-26 19:29N 01°16' E 103°46'0 0.0
2016-Jun-26 18:32N 01°16' E 103°46'0 0.0
2016-Jun-26 14:28N 01°16' E 103°46'0 0.1
2016-Jun-26 13:33N 01°16' E 103°46'0 0.1
2016-Jun-26 12:24N 01°16' E 103°46'0 0.1
2016-Jun-26 11:33N 01°16' E 103°46'0 0.0
2016-Jun-26 10:33N 01°16' E 103°46'8 8.4
2016-Jun-26 09:33N 01°12' E 103°39'7 2.4
2016-Jun-26 06:33N 01°12' E 103°32'2 0.2
2016-Jun-25 17:04N 01°14' E 103°32'7 0.5
2016-Jun-25 03:31N 01°12' E 103°38'1010.7
2016-Jun-25 02:33N 01°10' E 103°48'1111.6
2016-Jun-25 01:33N 01°15' E 103°59'  
2016-Jun-20 04:22N 01°15' E 104°06'1012.9
2016-Jun-20 03:33N 01°13' E 103°56'9 9.1
2016-Jun-20 02:33N 01°14' E 103°47'2 1.6
2016-Jun-20 01:23N 01°16' E 103°46'0 0.0
2016-Jun-20 00:29N 01°16' E 103°46'0 0.0
2016-Jun-19 23:30N 01°16' E 103°46'0 0.0
2016-Jun-19 22:33N 01°16' E 103°46'0 0.0
2016-Jun-19 21:32N 01°16' E 103°46'0 0.0
2016-Jun-19 20:29N 01°16' E 103°46'0 0.0
2016-Jun-19 19:32N 01°16' E 103°46'0 0.0
2016-Jun-19 18:32N 01°16' E 103°46'0 0.0
2016-Jun-19 17:27N 01°16' E 103°46'0 0.0
2016-Jun-19 16:33N 01°16' E 103°46'0 0.0
2016-Jun-19 15:31N 01°16' E 103°46'0 0.0
2016-Jun-19 14:29N 01°16' E 103°46'0 0.0
2016-Jun-19 13:32N 01°16' E 103°46'0 0.0
2016-Jun-19 12:34N 01°16' E 103°46'0 0.0
2016-Jun-19 11:33N 01°16' E 103°46'2 1.8
2016-Jun-19 10:29N 01°14' E 103°47'0 0.0
2016-Jun-19 09:32N 01°14' E 103°47'0 0.0
2016-Jun-19 08:32N 01°14' E 103°47'0 0.1
2016-Jun-19 07:32N 01°14' E 103°47'0 0.1
2016-Jun-19 06:33N 01°14' E 103°47'0 0.0
2016-Jun-19 05:33N 01°14' E 103°47'0 0.1
2016-Jun-19 04:33N 01°14' E 103°47'0 0.1
2016-Jun-19 03:33N 01°14' E 103°47'4 4.4
2016-Jun-19 02:33N 01°14' E 103°43'12 2.4
2016-Jun-18 21:23N 01°21' E 103°33'0 0.0
2016-Jun-18 20:14N 01°21' E 103°33'0 0.0
2016-Jun-18 19:32N 01°21' E 103°33'0 0.0
2016-Jun-18 18:20N 01°21' E 103°33'0 0.0
2016-Jun-18 17:26N 01°21' E 103°33'0 0.0
2016-Jun-18 16:08N 01°21' E 103°33'0 0.0
2016-Jun-18 15:32N 01°21' E 103°33'0 0.0
2016-Jun-18 12:11N 01°21' E 103°33'0 0.0
2016-Jun-18 07:18N 01°21' E 103°33'12 2.2
2016-Jun-18 02:07N 01°10' E 103°33'5 4.8
2016-Jun-18 01:04N 01°11' E 103°38'9 6.3
2016-Jun-17 23:33N 01°10' E 103°48'8 7.9
2016-Jun-17 22:33N 01°13' E 103°55'7 7.4
2016-Jun-17 21:33N 01°15' E 104°02'  

Dump ship's entire track history